sensor_id;sensor_type;location;lat;lon;timestamp;temperature;humidity
72756;SHT30;60881;55.002;73.232;2022-08-21T00:00:22;11.93;80.28
72756;SHT30;60881;55.002;73.232;2022-08-21T00:03:05;12.06;80.08
72756;SHT30;60881;55.002;73.232;2022-08-21T00:05:35;12.14;79.74
72756;SHT30;60881;55.002;73.232;2022-08-21T00:08:02;12.17;80.10
72756;SHT30;60881;55.002;73.232;2022-08-21T00:10:29;12.26;79.68
72756;SHT30;60881;55.002;73.232;2022-08-21T00:12:57;12.24;79.70
72756;SHT30;60881;55.002;73.232;2022-08-21T00:15:26;12.30;79.49
72756;SHT30;60881;55.002;73.232;2022-08-21T00:17:53;12.31;79.98
72756;SHT30;60881;55.002;73.232;2022-08-21T00:20:21;12.33;80.06
72756;SHT30;60881;55.002;73.232;2022-08-21T00:22:49;12.37;79.84
72756;SHT30;60881;55.002;73.232;2022-08-21T00:25:17;12.40;79.66
72756;SHT30;60881;55.002;73.232;2022-08-21T00:27:45;12.38;79.63
72756;SHT30;60881;55.002;73.232;2022-08-21T00:30:14;12.45;79.51
72756;SHT30;60881;55.002;73.232;2022-08-21T00:32:42;12.51;79.68
72756;SHT30;60881;55.002;73.232;2022-08-21T00:35:14;12.51;79.17
72756;SHT30;60881;55.002;73.232;2022-08-21T00:37:46;12.57;79.64
72756;SHT30;60881;55.002;73.232;2022-08-21T00:40:45;12.68;78.91
72756;SHT30;60881;55.002;73.232;2022-08-21T00:43:14;12.68;78.81
72756;SHT30;60881;55.002;73.232;2022-08-21T00:45:52;12.73;78.89
72756;SHT30;60881;55.002;73.232;2022-08-21T00:48:19;12.75;78.52
72756;SHT30;60881;55.002;73.232;2022-08-21T00:51:04;12.78;78.86
72756;SHT30;60881;55.002;73.232;2022-08-21T00:53:39;12.81;78.67
72756;SHT30;60881;55.002;73.232;2022-08-21T00:56:17;12.92;78.46
72756;SHT30;60881;55.002;73.232;2022-08-21T00:58:46;13.86;75.98
72756;SHT30;60881;55.002;73.232;2022-08-21T01:01:15;14.59;73.12
72756;SHT30;60881;55.002;73.232;2022-08-21T01:03:43;14.50;73.23
72756;SHT30;60881;55.002;73.232;2022-08-21T01:06:11;14.23;74.28
72756;SHT30;60881;55.002;73.232;2022-08-21T01:08:39;13.86;75.07
72756;SHT30;60881;55.002;73.232;2022-08-21T01:11:12;13.62;76.26
72756;SHT30;60881;55.002;73.232;2022-08-21T01:13:40;13.58;76.97
72756;SHT30;60881;55.002;73.232;2022-08-21T01:16:13;13.51;77.37
72756;SHT30;60881;55.002;73.232;2022-08-21T01:18:46;13.49;76.89
72756;SHT30;60881;55.002;73.232;2022-08-21T01:21:21;13.45;77.55
72756;SHT30;60881;55.002;73.232;2022-08-21T01:23:50;13.42;78.50
72756;SHT30;60881;55.002;73.232;2022-08-21T01:26:26;13.43;77.75
72756;SHT30;60881;55.002;73.232;2022-08-21T01:31:48;13.48;78.27
72756;SHT30;60881;55.002;73.232;2022-08-21T01:34:15;13.53;78.27
72756;SHT30;60881;55.002;73.232;2022-08-21T01:36:43;13.52;78.00
72756;SHT30;60881;55.002;73.232;2022-08-21T01:39:11;13.58;77.79
72756;SHT30;60881;55.002;73.232;2022-08-21T01:41:38;13.62;78.06
72756;SHT30;60881;55.002;73.232;2022-08-21T01:44:05;13.67;77.96
72756;SHT30;60881;55.002;73.232;2022-08-21T01:46:34;13.75;77.66
72756;SHT30;60881;55.002;73.232;2022-08-21T01:49:00;13.79;77.75
72756;SHT30;60881;55.002;73.232;2022-08-21T01:51:28;13.83;77.64
72756;SHT30;60881;55.002;73.232;2022-08-21T01:53:54;13.89;77.82
72756;SHT30;60881;55.002;73.232;2022-08-21T01:56:21;13.95;77.50
72756;SHT30;60881;55.002;73.232;2022-08-21T01:58:48;14.03;77.48
72756;SHT30;60881;55.002;73.232;2022-08-21T02:01:16;14.06;77.00
72756;SHT30;60881;55.002;73.232;2022-08-21T02:03:47;14.16;76.65
72756;SHT30;60881;55.002;73.232;2022-08-21T02:06:24;14.20;76.69
72756;SHT30;60881;55.002;73.232;2022-08-21T02:08:52;14.30;76.64
72756;SHT30;60881;55.002;73.232;2022-08-21T02:11:19;14.37;76.82
72756;SHT30;60881;55.002;73.232;2022-08-21T02:13:46;14.45;76.54
72756;SHT30;60881;55.002;73.232;2022-08-21T02:16:13;14.56;76.69
72756;SHT30;60881;55.002;73.232;2022-08-21T02:18:41;14.67;75.89
72756;SHT30;60881;55.002;73.232;2022-08-21T02:21:07;14.77;75.73
72756;SHT30;60881;55.002;73.232;2022-08-21T02:23:35;14.81;75.46
72756;SHT30;60881;55.002;73.232;2022-08-21T02:26:05;14.89;75.19
72756;SHT30;60881;55.002;73.232;2022-08-21T02:28:33;14.98;75.09
72756;SHT30;60881;55.002;73.232;2022-08-21T02:31:00;15.11;74.89
72756;SHT30;60881;55.002;73.232;2022-08-21T02:33:28;15.18;74.66
72756;SHT30;60881;55.002;73.232;2022-08-21T02:35:55;15.27;74.73
72756;SHT30;60881;55.002;73.232;2022-08-21T02:38:29;15.38;74.34
72756;SHT30;60881;55.002;73.232;2022-08-21T02:40:56;15.41;74.28
72756;SHT30;60881;55.002;73.232;2022-08-21T02:43:24;15.38;74.38
72756;SHT30;60881;55.002;73.232;2022-08-21T02:45:52;15.42;74.21
72756;SHT30;60881;55.002;73.232;2022-08-21T02:48:25;15.46;74.24
72756;SHT30;60881;55.002;73.232;2022-08-21T02:50:59;15.49;74.09
72756;SHT30;60881;55.002;73.232;2022-08-21T02:53:27;15.46;74.42
72756;SHT30;60881;55.002;73.232;2022-08-21T02:55:59;15.43;74.66
72756;SHT30;60881;55.002;73.232;2022-08-21T02:58:31;15.41;75.44
72756;SHT30;60881;55.002;73.232;2022-08-21T03:00:58;15.32;76.14
72756;SHT30;60881;55.002;73.232;2022-08-21T03:03:26;15.32;76.16
72756;SHT30;60881;55.002;73.232;2022-08-21T03:05:53;15.29;76.34
72756;SHT30;60881;55.002;73.232;2022-08-21T03:08:21;15.29;76.76
72756;SHT30;60881;55.002;73.232;2022-08-21T03:10:50;15.32;76.88
72756;SHT30;60881;55.002;73.232;2022-08-21T03:13:19;15.36;76.40
72756;SHT30;60881;55.002;73.232;2022-08-21T03:15:48;15.43;76.71
72756;SHT30;60881;55.002;73.232;2022-08-21T03:18:16;15.52;76.52
72756;SHT30;60881;55.002;73.232;2022-08-21T03:20:44;15.52;76.75
72756;SHT30;60881;55.002;73.232;2022-08-21T03:23:15;15.55;76.93
72756;SHT30;60881;55.002;73.232;2022-08-21T03:25:42;15.49;77.27
72756;SHT30;60881;55.002;73.232;2022-08-21T03:28:12;15.48;78.01
72756;SHT30;60881;55.002;73.232;2022-08-21T03:30:40;15.41;78.42
72756;SHT30;60881;55.002;73.232;2022-08-21T03:33:07;15.43;79.04
72756;SHT30;60881;55.002;73.232;2022-08-21T03:35:33;15.39;79.69
72756;SHT30;60881;55.002;73.232;2022-08-21T03:38:00;15.34;79.85
72756;SHT30;60881;55.002;73.232;2022-08-21T03:40:26;15.31;80.65
72756;SHT30;60881;55.002;73.232;2022-08-21T03:42:54;15.27;80.79
72756;SHT30;60881;55.002;73.232;2022-08-21T03:45:30;15.24;81.31
72756;SHT30;60881;55.002;73.232;2022-08-21T03:48:00;15.18;81.27
72756;SHT30;60881;55.002;73.232;2022-08-21T03:50:30;15.11;81.60
72756;SHT30;60881;55.002;73.232;2022-08-21T03:52:58;15.05;81.97
72756;SHT30;60881;55.002;73.232;2022-08-21T03:55:27;15.01;82.58
72756;SHT30;60881;55.002;73.232;2022-08-21T03:57:53;15.01;82.53
72756;SHT30;60881;55.002;73.232;2022-08-21T04:00:21;15.01;82.21
72756;SHT30;60881;55.002;73.232;2022-08-21T04:02:49;14.99;82.70
72756;SHT30;60881;55.002;73.232;2022-08-21T04:05:18;14.98;82.66
72756;SHT30;60881;55.002;73.232;2022-08-21T04:08:04;14.94;82.62
72756;SHT30;60881;55.002;73.232;2022-08-21T04:10:36;14.91;82.47
72756;SHT30;60881;55.002;73.232;2022-08-21T04:13:04;14.92;82.65
72756;SHT30;60881;55.002;73.232;2022-08-21T04:15:31;14.88;82.76
72756;SHT30;60881;55.002;73.232;2022-08-21T04:18:04;14.88;83.15
72756;SHT30;60881;55.002;73.232;2022-08-21T04:20:31;14.91;82.97
72756;SHT30;60881;55.002;73.232;2022-08-21T04:23:01;14.91;83.21
72756;SHT30;60881;55.002;73.232;2022-08-21T04:25:29;14.91;83.29
72756;SHT30;60881;55.002;73.232;2022-08-21T04:28:03;14.95;83.73
72756;SHT30;60881;55.002;73.232;2022-08-21T04:30:30;15.01;83.38
72756;SHT30;60881;55.002;73.232;2022-08-21T04:32:57;15.01;83.46
72756;SHT30;60881;55.002;73.232;2022-08-21T04:35:26;15.09;83.60
72756;SHT30;60881;55.002;73.232;2022-08-21T04:37:53;15.09;83.59
72756;SHT30;60881;55.002;73.232;2022-08-21T04:40:23;15.17;83.29
72756;SHT30;60881;55.002;73.232;2022-08-21T04:42:54;15.22;83.41
72756;SHT30;60881;55.002;73.232;2022-08-21T04:45:26;15.36;82.95
72756;SHT30;60881;55.002;73.232;2022-08-21T04:47:55;15.41;83.65
72756;SHT30;60881;55.002;73.232;2022-08-21T04:50:39;15.45;83.36
72756;SHT30;60881;55.002;73.232;2022-08-21T04:53:43;15.49;82.94
72756;SHT30;60881;55.002;73.232;2022-08-21T04:56:05;15.52;83.40
72756;SHT30;60881;55.002;73.232;2022-08-21T04:58:34;15.48;83.23
72756;SHT30;60881;55.002;73.232;2022-08-21T05:01:02;15.52;83.51
72756;SHT30;60881;55.002;73.232;2022-08-21T05:03:30;15.55;83.55
72756;SHT30;60881;55.002;73.232;2022-08-21T05:05:59;15.61;83.04
72756;SHT30;60881;55.002;73.232;2022-08-21T05:08:27;15.63;82.93
72756;SHT30;60881;55.002;73.232;2022-08-21T05:10:54;15.79;83.28
72756;SHT30;60881;55.002;73.232;2022-08-21T05:13:21;16.02;82.95
72756;SHT30;60881;55.002;73.232;2022-08-21T05:15:47;16.16;82.33
72756;SHT30;60881;55.002;73.232;2022-08-21T05:18:13;16.23;81.13
72756;SHT30;60881;55.002;73.232;2022-08-21T05:20:45;16.23;82.59
72756;SHT30;60881;55.002;73.232;2022-08-21T05:23:22;16.32;81.10
72756;SHT30;60881;55.002;73.232;2022-08-21T05:25:49;16.36;81.54
72756;SHT30;60881;55.002;73.232;2022-08-21T05:28:15;16.40;81.32
72756;SHT30;60881;55.002;73.232;2022-08-21T05:30:41;16.34;81.53
72756;SHT30;60881;55.002;73.232;2022-08-21T05:33:08;16.32;81.93
72756;SHT30;60881;55.002;73.232;2022-08-21T05:35:34;16.20;81.71
72756;SHT30;60881;55.002;73.232;2022-08-21T05:38:02;16.17;82.03
72756;SHT30;60881;55.002;73.232;2022-08-21T05:40:29;16.19;82.26
72756;SHT30;60881;55.002;73.232;2022-08-21T05:42:56;16.14;82.49
72756;SHT30;60881;55.002;73.232;2022-08-21T05:45:28;16.17;82.24
72756;SHT30;60881;55.002;73.232;2022-08-21T05:47:55;16.17;82.07
72756;SHT30;60881;55.002;73.232;2022-08-21T05:50:22;16.17;82.13
72756;SHT30;60881;55.002;73.232;2022-08-21T05:52:49;16.20;82.31
72756;SHT30;60881;55.002;73.232;2022-08-21T05:55:15;16.22;81.97
72756;SHT30;60881;55.002;73.232;2022-08-21T05:57:42;16.24;81.69
72756;SHT30;60881;55.002;73.232;2022-08-21T06:00:09;16.29;82.12
72756;SHT30;60881;55.002;73.232;2022-08-21T06:02:41;16.33;81.95
72756;SHT30;60881;55.002;73.232;2022-08-21T06:05:08;16.39;81.64
72756;SHT30;60881;55.002;73.232;2022-08-21T06:07:36;16.40;81.42
72756;SHT30;60881;55.002;73.232;2022-08-21T06:10:02;16.42;81.41
72756;SHT30;60881;55.002;73.232;2022-08-21T06:12:29;16.44;81.42
72756;SHT30;60881;55.002;73.232;2022-08-21T06:14:58;16.44;81.55
72756;SHT30;60881;55.002;73.232;2022-08-21T06:17:25;16.46;81.95
72756;SHT30;60881;55.002;73.232;2022-08-21T06:19:54;16.54;82.08
72756;SHT30;60881;55.002;73.232;2022-08-21T06:22:21;16.59;81.98
72756;SHT30;60881;55.002;73.232;2022-08-21T06:24:48;16.63;82.18
72756;SHT30;60881;55.002;73.232;2022-08-21T06:27:16;16.61;81.65
72756;SHT30;60881;55.002;73.232;2022-08-21T06:29:44;16.54;81.53
72756;SHT30;60881;55.002;73.232;2022-08-21T06:32:21;16.49;82.25
72756;SHT30;60881;55.002;73.232;2022-08-21T06:34:47;16.47;83.62
72756;SHT30;60881;55.002;73.232;2022-08-21T06:37:15;16.46;84.49
72756;SHT30;60881;55.002;73.232;2022-08-21T06:39:42;16.36;84.34
72756;SHT30;60881;55.002;73.232;2022-08-21T06:42:16;16.33;85.07
72756;SHT30;60881;55.002;73.232;2022-08-21T06:44:44;16.40;84.05
72756;SHT30;60881;55.002;73.232;2022-08-21T06:47:11;16.40;84.24
72756;SHT30;60881;55.002;73.232;2022-08-21T06:49:41;16.57;83.45
72756;SHT30;60881;55.002;73.232;2022-08-21T06:52:11;16.71;82.66
72756;SHT30;60881;55.002;73.232;2022-08-21T06:54:39;16.81;82.63
72756;SHT30;60881;55.002;73.232;2022-08-21T06:57:06;16.84;80.66
72756;SHT30;60881;55.002;73.232;2022-08-21T06:59:34;16.80;81.61
72756;SHT30;60881;55.002;73.232;2022-08-21T07:02:00;16.84;81.69
72756;SHT30;60881;55.002;73.232;2022-08-21T07:04:27;16.94;82.66
72756;SHT30;60881;55.002;73.232;2022-08-21T07:06:53;17.08;82.71
72756;SHT30;60881;55.002;73.232;2022-08-21T07:09:21;17.12;80.82
72756;SHT30;60881;55.002;73.232;2022-08-21T07:11:51;17.12;81.35
72756;SHT30;60881;55.002;73.232;2022-08-21T07:14:19;17.11;80.28
72756;SHT30;60881;55.002;73.232;2022-08-21T07:16:47;17.12;79.83
72756;SHT30;60881;55.002;73.232;2022-08-21T07:19:15;17.11;78.86
72756;SHT30;60881;55.002;73.232;2022-08-21T07:21:41;17.06;80.51
72756;SHT30;60881;55.002;73.232;2022-08-21T07:24:08;16.95;80.32
72756;SHT30;60881;55.002;73.232;2022-08-21T07:26:36;16.74;80.38
72756;SHT30;60881;55.002;73.232;2022-08-21T07:29:03;16.50;81.29
72756;SHT30;60881;55.002;73.232;2022-08-21T07:31:30;16.30;81.91
72756;SHT30;60881;55.002;73.232;2022-08-21T07:33:58;16.23;82.52
72756;SHT30;60881;55.002;73.232;2022-08-21T07:36:25;16.26;83.03
72756;SHT30;60881;55.002;73.232;2022-08-21T07:38:52;16.30;82.96
72756;SHT30;60881;55.002;73.232;2022-08-21T07:41:33;16.26;82.96
72756;SHT30;60881;55.002;73.232;2022-08-21T07:44:02;16.26;82.22
72756;SHT30;60881;55.002;73.232;2022-08-21T07:46:30;16.26;81.45
72756;SHT30;60881;55.002;73.232;2022-08-21T07:48:56;16.29;81.56
72756;SHT30;60881;55.002;73.232;2022-08-21T07:51:25;16.37;81.14
72756;SHT30;60881;55.002;73.232;2022-08-21T07:53:55;16.27;82.29
72756;SHT30;60881;55.002;73.232;2022-08-21T07:56:22;16.22;80.63
72756;SHT30;60881;55.002;73.232;2022-08-21T07:58:48;16.19;81.25
72756;SHT30;60881;55.002;73.232;2022-08-21T08:01:16;16.08;82.21
72756;SHT30;60881;55.002;73.232;2022-08-21T08:03:43;15.88;83.08
72756;SHT30;60881;55.002;73.232;2022-08-21T08:06:11;15.85;82.64
72756;SHT30;60881;55.002;73.232;2022-08-21T08:08:40;15.81;81.84
72756;SHT30;60881;55.002;73.232;2022-08-21T08:11:09;15.63;81.94
72756;SHT30;60881;55.002;73.232;2022-08-21T08:13:40;15.58;82.43
72756;SHT30;60881;55.002;73.232;2022-08-21T08:16:08;15.51;82.42
72756;SHT30;60881;55.002;73.232;2022-08-21T08:18:34;15.52;82.05
72756;SHT30;60881;55.002;73.232;2022-08-21T08:21:00;15.53;81.62
72756;SHT30;60881;55.002;73.232;2022-08-21T08:23:27;15.62;81.39
72756;SHT30;60881;55.002;73.232;2022-08-21T08:25:53;15.70;81.88
72756;SHT30;60881;55.002;73.232;2022-08-21T08:28:20;15.73;81.10
72756;SHT30;60881;55.002;73.232;2022-08-21T08:30:48;15.70;79.93
72756;SHT30;60881;55.002;73.232;2022-08-21T08:33:16;15.63;80.15
72756;SHT30;60881;55.002;73.232;2022-08-21T08:35:46;15.58;80.71
72756;SHT30;60881;55.002;73.232;2022-08-21T08:38:14;15.51;81.35
72756;SHT30;60881;55.002;73.232;2022-08-21T08:40:58;15.51;81.22
72756;SHT30;60881;55.002;73.232;2022-08-21T08:43:28;15.43;80.59
72756;SHT30;60881;55.002;73.232;2022-08-21T08:45:58;15.49;80.29
72756;SHT30;60881;55.002;73.232;2022-08-21T08:48:50;15.55;80.17
72756;SHT30;60881;55.002;73.232;2022-08-21T08:51:24;15.52;80.41
72756;SHT30;60881;55.002;73.232;2022-08-21T08:53:59;15.43;79.74
72756;SHT30;60881;55.002;73.232;2022-08-21T08:56:33;15.39;80.41
72756;SHT30;60881;55.002;73.232;2022-08-21T08:59:15;15.39;80.99
72756;SHT30;60881;55.002;73.232;2022-08-21T09:01:48;15.52;80.39
72756;SHT30;60881;55.002;73.232;2022-08-21T09:04:22;15.69;78.42
72756;SHT30;60881;55.002;73.232;2022-08-21T09:12:37;15.73;76.10
72756;SHT30;60881;55.002;73.232;2022-08-21T09:18:11;15.75;77.78
72756;SHT30;60881;55.002;73.232;2022-08-21T09:26:15;15.72;76.48
72756;SHT30;60881;55.002;73.232;2022-08-21T09:28:43;15.85;77.28
72756;SHT30;60881;55.002;73.232;2022-08-21T09:31:24;16.00;75.61
72756;SHT30;60881;55.002;73.232;2022-08-21T09:33:58;16.06;74.71
72756;SHT30;60881;55.002;73.232;2022-08-21T09:36:47;16.03;73.40
72756;SHT30;60881;55.002;73.232;2022-08-21T09:39:25;16.13;73.55
72756;SHT30;60881;55.002;73.232;2022-08-21T09:41:59;16.03;74.43
72756;SHT30;60881;55.002;73.232;2022-08-21T09:44:39;16.06;74.84
72756;SHT30;60881;55.002;73.232;2022-08-21T09:47:11;16.00;75.10
72756;SHT30;60881;55.002;73.232;2022-08-21T09:49:42;15.95;75.17
72756;SHT30;60881;55.002;73.232;2022-08-21T09:52:21;15.88;75.11
72756;SHT30;60881;55.002;73.232;2022-08-21T09:54:53;15.92;76.03
72756;SHT30;60881;55.002;73.232;2022-08-21T09:57:29;15.83;76.50
72756;SHT30;60881;55.002;73.232;2022-08-21T10:02:46;15.61;76.74
72756;SHT30;60881;55.002;73.232;2022-08-21T10:05:19;15.45;76.08
72756;SHT30;60881;55.002;73.232;2022-08-21T10:07:46;15.49;75.62
72756;SHT30;60881;55.002;73.232;2022-08-21T10:10:20;15.53;75.38
72756;SHT30;60881;55.002;73.232;2022-08-21T10:18:40;15.78;74.58
72756;SHT30;60881;55.002;73.232;2022-08-21T10:24:21;15.83;74.87
72756;SHT30;60881;55.002;73.232;2022-08-21T10:27:06;15.89;74.54
72756;SHT30;60881;55.002;73.232;2022-08-21T10:29:51;15.95;73.59
72756;SHT30;60881;55.002;73.232;2022-08-21T10:32:47;15.81;73.43
72756;SHT30;60881;55.002;73.232;2022-08-21T10:35:32;15.72;74.23
72756;SHT30;60881;55.002;73.232;2022-08-21T10:38:38;15.69;74.45
72756;SHT30;60881;55.002;73.232;2022-08-21T10:47:11;15.27;73.68
72756;SHT30;60881;55.002;73.232;2022-08-21T10:49:53;15.22;73.45
72756;SHT30;60881;55.002;73.232;2022-08-21T10:52:39;15.24;73.95
72756;SHT30;60881;55.002;73.232;2022-08-21T10:55:25;15.22;73.39
72756;SHT30;60881;55.002;73.232;2022-08-21T10:58:09;15.28;73.36
72756;SHT30;60881;55.002;73.232;2022-08-21T11:00:47;15.32;72.24
72756;SHT30;60881;55.002;73.232;2022-08-21T11:03:39;15.42;73.26
72756;SHT30;60881;55.002;73.232;2022-08-21T11:06:18;15.49;72.21
72756;SHT30;60881;55.002;73.232;2022-08-21T11:09:12;15.59;72.54
72756;SHT30;60881;55.002;73.232;2022-08-21T11:11:57;15.49;71.63
72756;SHT30;60881;55.002;73.232;2022-08-21T11:17:18;15.53;71.92
72756;SHT30;60881;55.002;73.232;2022-08-21T11:22:35;15.65;70.31
72756;SHT30;60881;55.002;73.232;2022-08-21T11:25:10;15.67;69.92
72756;SHT30;60881;55.002;73.232;2022-08-21T11:28:11;15.73;69.12
72756;SHT30;60881;55.002;73.232;2022-08-21T11:31:12;15.78;68.46
72756;SHT30;60881;55.002;73.232;2022-08-21T11:39:16;15.79;66.83
72756;SHT30;60881;55.002;73.232;2022-08-21T11:42:06;15.73;67.03
72756;SHT30;60881;55.002;73.232;2022-08-21T11:50:31;15.61;65.27
72756;SHT30;60881;55.002;73.232;2022-08-21T11:58:52;15.55;65.92
72756;SHT30;60881;55.002;73.232;2022-08-21T12:01:13;15.53;65.15
72756;SHT30;60881;55.002;73.232;2022-08-21T12:03:58;15.62;64.58
72756;SHT30;60881;55.002;73.232;2022-08-21T12:06:31;15.62;64.73
72756;SHT30;60881;55.002;73.232;2022-08-21T12:09:51;15.67;65.02
72756;SHT30;60881;55.002;73.232;2022-08-21T12:12:24;15.67;64.75
72756;SHT30;60881;55.002;73.232;2022-08-21T12:17:37;15.55;64.64
72756;SHT30;60881;55.002;73.232;2022-08-21T12:22:55;15.43;64.07
72756;SHT30;60881;55.002;73.232;2022-08-21T12:26:22;15.49;64.49
72756;SHT30;60881;55.002;73.232;2022-08-21T12:28:35;15.55;63.54
72756;SHT30;60881;55.002;73.232;2022-08-21T12:31:03;15.49;63.59
72756;SHT30;60881;55.002;73.232;2022-08-21T12:33:38;15.53;63.21
72756;SHT30;60881;55.002;73.232;2022-08-21T12:36:15;15.52;63.65
72756;SHT30;60881;55.002;73.232;2022-08-21T12:38:54;15.42;63.25
72756;SHT30;60881;55.002;73.232;2022-08-21T12:41:42;15.38;63.43
72756;SHT30;60881;55.002;73.232;2022-08-21T12:44:13;15.28;64.18
72756;SHT30;60881;55.002;73.232;2022-08-21T12:46:57;15.31;64.09
72756;SHT30;60881;55.002;73.232;2022-08-21T12:49:30;15.29;64.72
72756;SHT30;60881;55.002;73.232;2022-08-21T12:54:38;15.32;64.27
72756;SHT30;60881;55.002;73.232;2022-08-21T12:57:06;15.28;64.57
72756;SHT30;60881;55.002;73.232;2022-08-21T12:59:37;15.25;64.55
72756;SHT30;60881;55.002;73.232;2022-08-21T13:02:15;15.27;64.44
72756;SHT30;60881;55.002;73.232;2022-08-21T13:04:44;15.21;65.13
72756;SHT30;60881;55.002;73.232;2022-08-21T13:07:24;15.19;65.08
72756;SHT30;60881;55.002;73.232;2022-08-21T13:09:59;15.17;64.05
72756;SHT30;60881;55.002;73.232;2022-08-21T13:12:35;15.11;63.69
72756;SHT30;60881;55.002;73.232;2022-08-21T13:15:05;15.09;64.43
72756;SHT30;60881;55.002;73.232;2022-08-21T13:17:36;15.05;64.40
72756;SHT30;60881;55.002;73.232;2022-08-21T13:20:08;14.98;63.82
72756;SHT30;60881;55.002;73.232;2022-08-21T13:22:43;14.94;63.67
72756;SHT30;60881;55.002;73.232;2022-08-21T13:25:12;14.92;64.84
72756;SHT30;60881;55.002;73.232;2022-08-21T13:27:45;14.89;64.17
72756;SHT30;60881;55.002;73.232;2022-08-21T13:30:19;14.94;64.52
72756;SHT30;60881;55.002;73.232;2022-08-21T13:32:54;14.85;64.30
72756;SHT30;60881;55.002;73.232;2022-08-21T13:35:36;14.83;64.76
72756;SHT30;60881;55.002;73.232;2022-08-21T13:38:12;14.75;64.97
72756;SHT30;60881;55.002;73.232;2022-08-21T13:40:44;14.70;66.29
72756;SHT30;60881;55.002;73.232;2022-08-21T13:43:14;14.70;66.08
72756;SHT30;60881;55.002;73.232;2022-08-21T13:45:47;14.71;66.26
72756;SHT30;60881;55.002;73.232;2022-08-21T13:48:15;14.71;65.78
72756;SHT30;60881;55.002;73.232;2022-08-21T13:50:42;14.70;66.60
72756;SHT30;60881;55.002;73.232;2022-08-21T13:53:36;14.68;65.16
72756;SHT30;60881;55.002;73.232;2022-08-21T13:56:04;14.65;63.13
72756;SHT30;60881;55.002;73.232;2022-08-21T13:58:44;14.56;63.03
72756;SHT30;60881;55.002;73.232;2022-08-21T14:01:31;14.53;61.55
72756;SHT30;60881;55.002;73.232;2022-08-21T14:04:06;14.51;62.51
72756;SHT30;60881;55.002;73.232;2022-08-21T14:06:36;14.44;62.18
72756;SHT30;60881;55.002;73.232;2022-08-21T14:09:39;14.41;62.10
72756;SHT30;60881;55.002;73.232;2022-08-21T14:15:26;14.30;62.77
72756;SHT30;60881;55.002;73.232;2022-08-21T14:18:05;14.29;62.45
72756;SHT30;60881;55.002;73.232;2022-08-21T14:20:38;14.21;62.49
72756;SHT30;60881;55.002;73.232;2022-08-21T14:23:05;14.16;62.54
72756;SHT30;60881;55.002;73.232;2022-08-21T14:25:42;14.10;62.84
72756;SHT30;60881;55.002;73.232;2022-08-21T14:28:18;14.02;63.01
72756;SHT30;60881;55.002;73.232;2022-08-21T14:30:47;13.95;63.49
72756;SHT30;60881;55.002;73.232;2022-08-21T14:33:23;13.89;63.18
72756;SHT30;60881;55.002;73.232;2022-08-21T14:35:52;13.76;64.02
72756;SHT30;60881;55.002;73.232;2022-08-21T14:38:26;13.73;63.71
72756;SHT30;60881;55.002;73.232;2022-08-21T14:40:56;13.61;63.98
72756;SHT30;60881;55.002;73.232;2022-08-21T14:43:26;13.49;64.32
72756;SHT30;60881;55.002;73.232;2022-08-21T14:45:54;13.43;64.27
72756;SHT30;60881;55.002;73.232;2022-08-21T14:48:22;13.35;64.72
72756;SHT30;60881;55.002;73.232;2022-08-21T14:50:50;13.26;65.41
72756;SHT30;60881;55.002;73.232;2022-08-21T14:53:17;13.19;65.06
72756;SHT30;60881;55.002;73.232;2022-08-21T14:55:45;13.20;65.07
72756;SHT30;60881;55.002;73.232;2022-08-21T14:58:41;13.14;65.11
72756;SHT30;60881;55.002;73.232;2022-08-21T15:01:12;13.11;65.02
72756;SHT30;60881;55.002;73.232;2022-08-21T15:03:39;13.08;65.15
72756;SHT30;60881;55.002;73.232;2022-08-21T15:06:07;13.02;65.36
72756;SHT30;60881;55.002;73.232;2022-08-21T15:08:36;12.98;65.71
72756;SHT30;60881;55.002;73.232;2022-08-21T15:11:19;12.96;65.76
72756;SHT30;60881;55.002;73.232;2022-08-21T15:13:49;12.91;65.70
72756;SHT30;60881;55.002;73.232;2022-08-21T15:16:18;12.87;65.64
72756;SHT30;60881;55.002;73.232;2022-08-21T15:18:44;12.83;65.76
72756;SHT30;60881;55.002;73.232;2022-08-21T15:21:11;12.77;65.67
72756;SHT30;60881;55.002;73.232;2022-08-21T15:23:38;12.69;65.90
72756;SHT30;60881;55.002;73.232;2022-08-21T15:26:04;12.64;66.69
72756;SHT30;60881;55.002;73.232;2022-08-21T15:28:32;12.60;66.09
72756;SHT30;60881;55.002;73.232;2022-08-21T15:31:00;12.50;66.16
72756;SHT30;60881;55.002;73.232;2022-08-21T15:33:28;12.44;66.28
72756;SHT30;60881;55.002;73.232;2022-08-21T15:35:54;12.34;66.51
72756;SHT30;60881;55.002;73.232;2022-08-21T15:38:22;12.30;66.34
72756;SHT30;60881;55.002;73.232;2022-08-21T15:40:49;12.30;66.00
72756;SHT30;60881;55.002;73.232;2022-08-21T15:43:48;12.31;66.08
72756;SHT30;60881;55.002;73.232;2022-08-21T15:46:18;12.33;64.73
72756;SHT30;60881;55.002;73.232;2022-08-21T15:48:45;12.33;64.92
72756;SHT30;60881;55.002;73.232;2022-08-21T15:51:13;12.31;64.52
72756;SHT30;60881;55.002;73.232;2022-08-21T15:53:41;12.36;63.26
72756;SHT30;60881;55.002;73.232;2022-08-21T15:56:20;12.42;63.73
72756;SHT30;60881;55.002;73.232;2022-08-21T15:58:54;12.45;63.22
72756;SHT30;60881;55.002;73.232;2022-08-21T16:01:27;12.48;62.84
72756;SHT30;60881;55.002;73.232;2022-08-21T16:03:54;12.51;62.57
72756;SHT30;60881;55.002;73.232;2022-08-21T16:06:24;12.51;62.17
72756;SHT30;60881;55.002;73.232;2022-08-21T16:08:51;12.52;62.49
72756;SHT30;60881;55.002;73.232;2022-08-21T16:11:21;12.55;61.20
72756;SHT30;60881;55.002;73.232;2022-08-21T16:13:54;12.61;61.15
72756;SHT30;60881;55.002;73.232;2022-08-21T16:16:23;12.71;59.67
72756;SHT30;60881;55.002;73.232;2022-08-21T16:18:57;12.74;59.88
72756;SHT30;60881;55.002;73.232;2022-08-21T16:21:25;12.75;60.42
72756;SHT30;60881;55.002;73.232;2022-08-21T16:24:00;12.75;61.05
72756;SHT30;60881;55.002;73.232;2022-08-21T16:26:27;12.71;61.35
72756;SHT30;60881;55.002;73.232;2022-08-21T16:29:05;12.73;60.06
72756;SHT30;60881;55.002;73.232;2022-08-21T16:31:34;12.74;60.63
72756;SHT30;60881;55.002;73.232;2022-08-21T16:34:01;12.75;60.06
72756;SHT30;60881;55.002;73.232;2022-08-21T16:36:28;12.80;59.87
72756;SHT30;60881;55.002;73.232;2022-08-21T16:38:56;12.80;59.42
72756;SHT30;60881;55.002;73.232;2022-08-21T16:41:26;12.83;59.99
72756;SHT30;60881;55.002;73.232;2022-08-21T16:43:54;12.83;58.96
72756;SHT30;60881;55.002;73.232;2022-08-21T16:46:20;12.84;59.55
72756;SHT30;60881;55.002;73.232;2022-08-21T16:48:47;12.88;59.70
72756;SHT30;60881;55.002;73.232;2022-08-21T16:51:20;12.91;58.53